createdAt,value
2019-05-11T00:01:42.718Z,86.17
2019-05-11T00:04:14.702Z,86.05
2019-05-11T00:06:46.872Z,86.05
2019-05-11T00:09:18.875Z,85.92
2019-05-11T00:11:50.825Z,86.15
2019-05-11T00:14:22.915Z,85.81
2019-05-11T00:16:55.493Z,86.65
2019-05-11T00:19:27.478Z,87.21
2019-05-11T00:21:59.441Z,87.04
2019-05-11T00:24:31.438Z,87.11
2019-05-11T00:27:03.415Z,87.10
2019-05-11T00:29:35.407Z,87.11
2019-05-11T00:32:07.415Z,86.53
2019-05-11T00:34:39.405Z,87.47
2019-05-11T00:37:11.372Z,87.47
2019-05-11T00:39:43.377Z,87.56
2019-05-11T00:42:15.608Z,86.85
2019-05-11T00:44:47.572Z,87.07
2019-05-11T00:47:19.540Z,87.12
2019-05-11T00:49:51.577Z,87.15
2019-05-11T00:52:23.539Z,87.37
2019-05-11T00:54:55.521Z,87.87
2019-05-11T00:57:27.564Z,88.23
2019-05-11T00:59:59.522Z,86.35
2019-05-11T01:02:31.478Z,86.78
2019-05-11T01:05:03.706Z,87.54
2019-05-11T01:07:35.695Z,87.95
2019-05-11T01:10:21.776Z,88.22
2019-05-11T01:12:41.831Z,87.63
2019-05-11T01:15:13.781Z,86.39
2019-05-11T01:17:45.767Z,86.98
2019-05-11T01:20:18.738Z,86.98
2019-05-11T01:22:50.889Z,87.47
2019-05-11T01:25:22.870Z,87.62
2019-05-11T01:27:54.828Z,87.75
2019-05-11T01:30:26.807Z,87.65
2019-05-11T01:32:58.764Z,87.65
2019-05-11T01:35:30.732Z,87.34
2019-05-11T01:38:02.827Z,87.48
2019-05-11T01:40:34.844Z,87.48
2019-05-11T01:43:06.796Z,87.93
2019-05-11T01:45:38.768Z,88.25
2019-05-11T01:48:10.764Z,87.90
2019-05-11T01:50:42.734Z,87.26
2019-05-11T01:53:14.722Z,88.13
2019-05-11T01:55:46.668Z,88.13
2019-05-11T01:58:18.665Z,87.80
2019-05-11T02:00:50.640Z,87.48
2019-05-11T02:03:22.615Z,86.94
2019-05-11T02:05:54.543Z,86.50
2019-05-11T02:08:26.550Z,86.77
2019-05-11T02:11:13.784Z,87.04
2019-05-11T02:13:32.369Z,86.56
2019-05-11T02:16:04.649Z,85.59
2019-05-11T02:18:36.628Z,85.11
2019-05-11T02:21:08.580Z,84.97
2019-05-11T02:23:40.572Z,83.82
2019-05-11T02:26:12.543Z,84.39
2019-05-11T02:28:44.877Z,84.30
2019-05-11T02:31:16.860Z,84.54
2019-05-11T02:33:48.813Z,85.14
2019-05-11T02:36:20.804Z,85.32
2019-05-11T02:38:52.771Z,85.54
2019-05-11T02:41:35.382Z,85.44
2019-05-11T02:43:58.619Z,85.64
2019-05-11T02:46:30.593Z,84.15
2019-05-11T02:49:02.587Z,84.93
2019-05-11T02:51:34.866Z,84.67
2019-05-11T02:54:07.845Z,85.06
2019-05-11T02:56:39.770Z,85.55
2019-05-11T02:59:11.793Z,85.65
2019-05-11T03:01:43.740Z,85.07
2019-05-11T03:04:15.733Z,85.01
2019-05-11T03:06:47.783Z,85.21
2019-05-11T03:09:19.879Z,85.05
2019-05-11T03:11:55.408Z,85.48
2019-05-11T03:14:25.712Z,86.08
2019-05-11T03:17:17.346Z,86.59
2019-05-11T03:19:49.327Z,85.88
2019-05-11T03:22:21.286Z,86.07
2019-05-11T03:24:53.279Z,86.38
2019-05-11T03:27:25.266Z,86.83
2019-05-11T03:30:00.727Z,87.15
2019-05-11T03:32:31.295Z,87.40
2019-05-11T03:35:04.400Z,87.11
2019-05-11T03:37:36.349Z,86.79
2019-05-11T03:40:08.560Z,86.88
2019-05-11T03:42:40.512Z,87.22
2019-05-11T03:45:12.997Z,86.73
2019-05-11T03:47:45.073Z,87.17
2019-05-11T03:50:17.087Z,87.59
2019-05-11T03:52:49.053Z,87.59
2019-05-11T03:55:21.059Z,87.66
2019-05-11T03:57:53.013Z,87.82
2019-05-11T04:00:25.040Z,87.61
2019-05-11T04:02:57.002Z,87.81
2019-05-11T04:05:29.062Z,87.81
2019-05-11T04:08:00.984Z,87.37
2019-05-11T04:10:32.968Z,87.43
2019-05-11T04:13:04.954Z,87.50
2019-05-11T04:15:36.923Z,87.63
2019-05-11T04:18:08.867Z,87.47
2019-05-11T04:20:40.823Z,87.47
2019-05-11T04:23:12.865Z,87.13
2019-05-11T04:25:44.820Z,87.16
2019-05-11T04:28:16.811Z,87.35
2019-05-11T04:30:48.767Z,87.54
2019-05-11T04:33:20.746Z,87.56
2019-05-11T04:35:52.726Z,86.97
2019-05-11T04:38:24.717Z,87.07
2019-05-11T04:40:56.676Z,86.94
2019-05-11T04:43:28.716Z,87.04
2019-05-11T04:46:00.669Z,87.16
2019-05-11T04:48:32.638Z,87.37
2019-05-11T04:51:04.597Z,86.50
2019-05-11T04:53:36.587Z,86.36
2019-05-11T04:56:08.571Z,85.91
2019-05-11T04:58:40.549Z,85.98
2019-05-11T05:01:12.502Z,86.31
2019-05-11T05:03:47.566Z,85.50
2019-05-11T05:06:24.030Z,83.33
2019-05-11T05:08:52.272Z,84.19
2019-05-11T05:11:24.240Z,84.43
2019-05-11T05:13:56.239Z,84.61
2019-05-11T05:16:31.287Z,84.79
2019-05-11T05:19:02.106Z,84.89
2019-05-11T05:21:34.089Z,84.98
2019-05-11T05:24:06.069Z,84.63
2019-05-11T05:26:38.024Z,83.21
2019-05-11T05:29:10.015Z,82.88
2019-05-11T05:31:41.966Z,83.56
2019-05-11T05:34:13.955Z,84.18
2019-05-11T05:36:45.941Z,84.55
2019-05-11T05:39:17.898Z,85.21
2019-05-11T05:41:57.038Z,85.35
2019-05-11T05:44:27.517Z,85.81
2019-05-11T05:46:57.690Z,84.98
2019-05-11T05:49:29.645Z,85.81
2019-05-11T05:52:01.648Z,85.54
2019-05-11T05:54:33.662Z,85.68
2019-05-11T05:57:05.743Z,85.71
2019-05-11T05:59:37.729Z,85.38
2019-05-11T06:02:09.699Z,85.46
2019-05-11T06:04:41.713Z,84.77
2019-05-11T06:07:13.984Z,84.25
2019-05-11T06:09:45.977Z,83.96
2019-05-11T06:12:17.947Z,84.25
2019-05-11T06:14:49.939Z,84.15
2019-05-11T06:17:21.970Z,82.79
2019-05-11T06:19:53.953Z,82.79
2019-05-11T06:22:25.978Z,82.78
2019-05-11T06:24:58.009Z,83.00
2019-05-11T06:27:29.960Z,82.77
2019-05-11T06:30:01.966Z,82.94
2019-05-11T06:32:33.956Z,82.91
2019-05-11T06:35:06.397Z,82.91
2019-05-11T06:37:38.387Z,83.06
2019-05-11T06:40:10.387Z,82.87
2019-05-11T06:42:42.397Z,81.60
2019-05-11T06:45:14.357Z,81.97
2019-05-11T06:47:46.358Z,82.08
2019-05-11T06:50:18.456Z,81.82
2019-05-11T06:52:50.434Z,82.17
2019-05-11T06:55:22.383Z,82.46
2019-05-11T06:57:54.386Z,82.31
2019-05-11T07:00:26.352Z,82.66
2019-05-11T07:02:58.335Z,82.80
2019-05-11T07:05:30.323Z,82.89
2019-05-11T07:08:02.322Z,82.80
2019-05-11T07:10:34.271Z,81.84
2019-05-11T07:13:06.265Z,81.45
2019-05-11T07:15:38.204Z,81.44
2019-05-11T07:18:10.332Z,80.28
2019-05-11T07:20:50.678Z,73.79
2019-05-11T07:23:16.166Z,70.66
2019-05-11T07:25:48.144Z,67.64
2019-05-11T07:28:20.143Z,65.48
2019-05-11T07:30:52.282Z,64.30
2019-05-11T07:33:24.219Z,63.34
2019-05-11T07:35:58.309Z,62.11
2019-05-11T07:38:30.077Z,61.12
2019-05-11T07:41:02.142Z,61.66
2019-05-11T07:43:34.147Z,61.90
2019-05-11T07:46:07.774Z,61.51
2019-05-11T07:48:40.051Z,60.63
2019-05-11T07:51:12.003Z,57.63
2019-05-11T07:53:44.015Z,55.37
2019-05-11T07:56:18.521Z,55.55
2019-05-11T07:58:49.939Z,55.38
2019-05-11T08:01:21.881Z,55.49
2019-05-11T08:03:53.865Z,54.19
2019-05-11T08:06:28.323Z,52.22
2019-05-11T08:08:59.787Z,50.07
2019-05-11T08:11:31.738Z,51.31
2019-05-11T08:14:03.817Z,50.20
2019-05-11T08:16:38.698Z,51.92
2019-05-11T08:19:10.755Z,52.87
2019-05-11T08:21:43.002Z,53.31
2019-05-11T08:24:14.995Z,52.88
2019-05-11T08:26:48.007Z,53.00
2019-05-11T08:29:20.183Z,53.63
2019-05-11T08:31:52.160Z,51.51
2019-05-11T08:34:24.145Z,51.20
2019-05-11T08:36:58.226Z,51.58
2019-05-11T08:39:30.022Z,50.63
2019-05-11T08:42:03.361Z,51.93
2019-05-11T08:44:37.829Z,52.46
2019-05-11T08:47:09.368Z,52.70
2019-05-11T08:49:41.433Z,51.31
2019-05-11T08:52:13.395Z,51.69
2019-05-11T08:54:45.395Z,51.75
2019-05-11T08:57:18.022Z,52.63
2019-05-11T08:59:50.065Z,52.16
2019-05-11T09:02:22.018Z,52.32
2019-05-11T09:04:54.010Z,51.83
2019-05-11T09:07:27.843Z,51.48
2019-05-11T09:09:59.951Z,52.17
2019-05-11T09:12:31.943Z,51.86
2019-05-11T09:15:04.760Z,50.82
2019-05-11T09:17:38.159Z,50.21
2019-05-11T09:20:10.763Z,49.34
2019-05-11T09:22:42.804Z,49.73
2019-05-11T09:25:14.972Z,48.22
2019-05-11T09:27:48.198Z,48.91
2019-05-11T09:30:20.933Z,49.36
2019-05-11T09:32:52.949Z,47.31
2019-05-11T09:35:24.922Z,48.26
2019-05-11T09:37:58.729Z,50.02
2019-05-11T09:40:30.840Z,52.38
2019-05-11T09:43:02.819Z,52.37
2019-05-11T09:45:47.488Z,50.83
2019-05-11T09:48:08.775Z,50.02
2019-05-11T09:50:40.815Z,47.71
2019-05-11T09:53:12.799Z,47.41
2019-05-11T09:55:44.891Z,45.21
2019-05-11T09:58:19.680Z,45.59
2019-05-11T10:00:50.806Z,45.17
2019-05-11T10:03:23.200Z,46.65
2019-05-11T10:05:55.185Z,46.82
2019-05-11T10:08:28.667Z,47.17
2019-05-11T10:11:02.207Z,47.97
2019-05-11T10:13:34.212Z,48.96
2019-05-11T10:16:08.145Z,49.21
2019-05-11T10:18:40.053Z,49.45
2019-05-11T10:21:12.013Z,49.80
2019-05-11T10:23:44.048Z,49.75
2019-05-11T10:26:18.421Z,49.97
2019-05-11T10:28:50.004Z,49.60
2019-05-11T10:31:22.069Z,49.50
2019-05-11T10:33:54.071Z,47.72
2019-05-11T10:36:28.016Z,47.05
2019-05-11T10:38:59.985Z,46.58
2019-05-11T10:41:31.959Z,46.44
2019-05-11T10:44:03.957Z,45.26
2019-05-11T10:46:38.046Z,44.92
2019-05-11T10:49:09.917Z,45.73
2019-05-11T10:51:41.881Z,45.28
2019-05-11T10:54:13.902Z,45.44
2019-05-11T10:56:48.096Z,43.55
2019-05-11T10:59:19.777Z,43.17
2019-05-11T11:01:51.738Z,43.01
2019-05-11T11:04:23.760Z,41.41
2019-05-11T11:06:55.792Z,39.84
2019-05-11T11:09:28.339Z,38.37
2019-05-11T11:12:00.592Z,37.68
2019-05-11T11:14:32.557Z,37.97
2019-05-11T11:17:04.789Z,37.66
2019-05-11T11:19:38.101Z,37.87
2019-05-11T11:22:33.261Z,37.32
2019-05-11T11:24:44.224Z,36.72
2019-05-11T11:27:18.083Z,37.16
2019-05-11T11:29:50.140Z,35.67
2019-05-11T11:32:22.195Z,35.90
2019-05-11T11:34:54.193Z,36.30
2019-05-11T11:37:28.090Z,35.03
2019-05-11T11:40:00.072Z,36.22
2019-05-11T11:42:32.073Z,36.65
2019-05-11T11:45:08.024Z,36.65
2019-05-11T11:47:40.142Z,35.92
2019-05-11T11:50:12.723Z,36.47
2019-05-11T11:52:45.156Z,36.69
2019-05-11T11:55:18.570Z,35.99
2019-05-11T11:57:50.823Z,35.58
2019-05-11T12:00:22.951Z,36.65
2019-05-11T12:02:54.932Z,37.01
2019-05-11T12:05:28.318Z,37.22
2019-05-11T12:08:00.544Z,37.33
2019-05-11T12:10:32.538Z,36.96
2019-05-11T12:13:04.546Z,37.40
2019-05-11T12:15:38.580Z,35.92
2019-05-11T12:18:10.477Z,35.86
2019-05-11T12:20:43.051Z,35.37
2019-05-11T12:23:15.082Z,36.60
2019-05-11T12:25:48.698Z,36.48
2019-05-11T12:28:20.975Z,37.24
2019-05-11T12:30:52.947Z,37.62
2019-05-11T12:33:25.119Z,37.58
2019-05-11T12:35:58.711Z,37.16
2019-05-11T12:38:30.877Z,36.94
2019-05-11T12:41:02.887Z,36.98
2019-05-11T12:43:34.898Z,35.49
2019-05-11T12:46:08.012Z,36.98
2019-05-11T12:48:40.466Z,36.77
2019-05-11T12:51:12.434Z,37.44
2019-05-11T12:53:44.484Z,37.56
2019-05-11T12:56:18.713Z,37.59
2019-05-11T12:58:50.389Z,37.42
2019-05-11T13:01:22.363Z,37.74
2019-05-11T13:03:54.393Z,38.63
2019-05-11T13:06:27.908Z,37.76
2019-05-11T13:09:00.102Z,38.81
2019-05-11T13:11:32.143Z,37.62
2019-05-11T13:14:04.165Z,37.52
2019-05-11T13:16:37.855Z,37.05
2019-05-11T13:19:10.017Z,37.01
2019-05-11T13:21:42.046Z,37.74
2019-05-11T13:24:14.112Z,36.56
2019-05-11T13:26:48.376Z,36.23
2019-05-11T13:29:20.046Z,35.83
2019-05-11T13:31:52.318Z,36.59
2019-05-11T13:34:24.327Z,37.22
2019-05-11T13:36:57.508Z,36.75
2019-05-11T13:39:29.742Z,36.69
2019-05-11T13:42:01.748Z,36.07
2019-05-11T13:44:33.741Z,35.68
2019-05-11T13:47:05.780Z,36.60
2019-05-11T13:49:37.951Z,36.52
2019-05-11T13:52:09.917Z,35.64
2019-05-11T13:54:41.886Z,36.57
2019-05-11T13:57:13.956Z,37.49
2019-05-11T13:59:47.692Z,37.97
2019-05-11T14:02:19.894Z,38.00
2019-05-11T14:04:51.915Z,39.02
2019-05-11T14:07:23.960Z,40.78
2019-05-11T14:09:55.930Z,43.48
2019-05-11T14:12:28.567Z,46.43
2019-05-11T14:15:00.746Z,49.78
2019-05-11T14:17:32.832Z,56.93
2019-05-11T14:20:04.896Z,62.28
2019-05-11T14:22:38.656Z,66.28
2019-05-11T14:25:10.837Z,70.44
2019-05-11T14:27:42.979Z,73.29
2019-05-11T14:30:15.082Z,74.85
2019-05-11T14:32:47.766Z,76.64
2019-05-11T14:35:19.953Z,78.42
2019-05-11T14:37:51.986Z,76.81
2019-05-11T14:40:24.022Z,79.39
2019-05-11T14:42:58.063Z,80.52
2019-05-11T14:45:30.040Z,79.21
2019-05-11T14:48:02.046Z,79.56
2019-05-11T14:50:34.125Z,81.98
2019-05-11T14:53:08.440Z,81.38
2019-05-11T14:55:40.060Z,80.47
2019-05-11T14:58:12.074Z,80.23
2019-05-11T15:00:44.133Z,78.96
2019-05-11T15:03:18.243Z,78.49
2019-05-11T15:05:50.099Z,79.80
2019-05-11T15:08:22.138Z,81.23
2019-05-11T15:10:54.169Z,81.75
2019-05-11T15:13:26.195Z,81.94
2019-05-11T15:15:58.675Z,82.06
2019-05-11T15:18:38.662Z,81.20
2019-05-11T15:21:04.771Z,81.01
2019-05-11T15:23:37.817Z,80.42
2019-05-11T15:26:10.222Z,81.18
2019-05-11T15:28:42.198Z,79.39
2019-05-11T15:31:14.208Z,79.77
2019-05-11T15:33:48.630Z,76.35
2019-05-11T15:36:20.153Z,77.12
2019-05-11T15:38:52.151Z,77.26
2019-05-11T15:41:24.223Z,75.73
2019-05-11T15:43:57.949Z,77.33
2019-05-11T15:46:30.208Z,77.09
2019-05-11T15:49:03.574Z,78.41
2019-05-11T15:51:38.299Z,77.88
2019-05-11T15:54:09.658Z,79.08
2019-05-11T15:56:41.694Z,80.05
2019-05-11T15:59:13.723Z,80.18
2019-05-11T16:01:48.906Z,81.20
2019-05-11T16:04:20.482Z,81.26
2019-05-11T16:06:52.533Z,80.74
2019-05-11T16:09:24.577Z,82.14
2019-05-11T16:11:56.602Z,82.73
2019-05-11T16:14:28.596Z,82.72
2019-05-11T16:17:00.616Z,80.23
2019-05-11T16:19:32.607Z,82.03
2019-05-11T16:22:04.633Z,82.54
2019-05-11T16:24:39.831Z,81.55
2019-05-11T16:27:10.503Z,79.28
2019-05-11T16:29:42.506Z,81.27
2019-05-11T16:32:14.535Z,82.97
2019-05-11T16:34:46.548Z,81.25
2019-05-11T16:37:18.614Z,82.19
2019-05-11T16:39:50.558Z,80.15
2019-05-11T16:42:22.591Z,80.33
2019-05-11T16:44:54.567Z,81.54
2019-05-11T16:47:28.482Z,81.88
2019-05-11T16:50:00.505Z,81.61
2019-05-11T16:52:32.486Z,81.62
2019-05-11T16:55:04.594Z,80.44
2019-05-11T16:57:38.196Z,82.11
2019-05-11T17:00:10.406Z,82.25
2019-05-11T17:02:42.436Z,83.08
2019-05-11T17:05:25.861Z,83.39
2019-05-11T17:07:48.537Z,83.92
2019-05-11T17:10:20.550Z,83.82
2019-05-11T17:12:52.578Z,84.01
2019-05-11T17:15:24.588Z,84.45
2019-05-11T17:17:58.562Z,83.74
2019-05-11T17:20:30.567Z,83.67
2019-05-11T17:23:02.633Z,84.02
2019-05-11T17:25:34.662Z,83.42
2019-05-11T17:28:09.747Z,83.90
2019-05-11T17:30:40.634Z,84.60
2019-05-11T17:33:12.662Z,83.51
2019-05-11T17:35:44.722Z,83.70
2019-05-11T17:38:18.435Z,84.11
2019-05-11T17:40:50.505Z,85.03
2019-05-11T17:43:22.609Z,85.87
2019-05-11T17:45:54.577Z,86.46
2019-05-11T17:48:28.199Z,87.11
2019-05-11T17:51:00.408Z,87.30
2019-05-11T17:53:32.475Z,87.06
2019-05-11T17:56:04.511Z,87.35
2019-05-11T17:58:37.863Z,87.22
2019-05-11T18:01:10.060Z,87.02
2019-05-11T18:03:42.114Z,87.23
2019-05-11T18:06:14.136Z,86.95
2019-05-11T18:08:47.912Z,87.75
2019-05-11T18:11:20.082Z,88.16
2019-05-11T18:13:52.078Z,88.37
2019-05-11T18:16:24.088Z,88.65
2019-05-11T18:18:56.069Z,89.01
2019-05-11T18:21:28.155Z,88.99
2019-05-11T18:24:00.178Z,89.23
2019-05-11T18:26:32.216Z,89.38
2019-05-11T18:29:04.206Z,89.32
2019-05-11T18:31:38.354Z,89.65
2019-05-11T18:34:10.374Z,89.78
2019-05-11T18:36:42.526Z,89.97
2019-05-11T18:39:14.684Z,89.75
2019-05-11T18:41:48.436Z,89.78
2019-05-11T18:44:20.543Z,89.95
2019-05-11T18:46:52.543Z,90.05
2019-05-11T18:49:24.833Z,90.11
2019-05-11T18:51:58.622Z,90.14
2019-05-11T18:54:30.768Z,89.81
2019-05-11T18:57:02.829Z,89.94
2019-05-11T18:59:34.922Z,89.84
2019-05-11T19:02:08.433Z,89.43
2019-05-11T19:04:40.767Z,90.08
2019-05-11T19:07:16.932Z,89.50
2019-05-11T19:09:48.533Z,89.78
2019-05-11T19:12:20.724Z,88.41
2019-05-11T19:14:52.755Z,87.36
2019-05-11T19:17:25.021Z,88.19
2019-05-11T19:19:57.996Z,88.19
2019-05-11T19:22:30.184Z,88.41
2019-05-11T19:25:02.193Z,89.18
2019-05-11T19:27:34.254Z,88.21
2019-05-11T19:30:07.986Z,88.48
2019-05-11T19:32:40.244Z,89.18
2019-05-11T19:35:12.274Z,88.67
2019-05-11T19:37:44.339Z,89.20
2019-05-11T19:40:16.349Z,89.17
2019-05-11T19:42:53.872Z,89.65
2019-05-11T19:45:29.061Z,89.69
2019-05-11T19:48:00.235Z,89.36
2019-05-11T19:50:32.252Z,89.36
2019-05-11T19:53:04.288Z,89.00
2019-05-11T19:55:36.314Z,89.75
2019-05-11T19:58:08.402Z,90.00
2019-05-11T20:00:40.474Z,90.35
2019-05-11T20:03:12.583Z,90.55
2019-05-11T20:05:44.693Z,90.70
2019-05-11T20:08:18.469Z,90.94
2019-05-11T20:10:50.766Z,91.03
2019-05-11T20:13:22.954Z,91.03
2019-05-11T20:15:55.072Z,90.50
2019-05-11T20:18:28.854Z,90.63
2019-05-11T20:21:15.101Z,90.20
2019-05-11T20:23:34.950Z,89.64
2019-05-11T20:26:08.915Z,89.94
2019-05-11T20:28:41.135Z,89.60
2019-05-11T20:31:13.202Z,89.72
2019-05-11T20:33:45.210Z,88.87
2019-05-11T20:36:17.782Z,88.87
2019-05-11T20:38:50.083Z,88.77
2019-05-11T20:41:22.118Z,88.22
2019-05-11T20:43:54.103Z,88.85
2019-05-11T20:46:27.720Z,88.22
2019-05-11T20:48:59.853Z,88.07
2019-05-11T20:51:36.615Z,88.55
2019-05-11T20:54:08.596Z,87.92
2019-05-11T20:56:39.811Z,88.54
2019-05-11T20:59:11.811Z,88.40
2019-05-11T21:01:43.805Z,88.29
2019-05-11T21:04:15.875Z,88.10
2019-05-11T21:06:47.911Z,89.06
2019-05-11T21:09:20.004Z,89.08
2019-05-11T21:11:52.011Z,89.45
2019-05-11T21:14:24.006Z,89.66
2019-05-11T21:16:58.599Z,90.01
2019-05-11T21:19:30.006Z,88.87
2019-05-11T21:22:02.008Z,88.16
2019-05-11T21:24:33.986Z,88.33
2019-05-11T21:27:06.001Z,88.35
2019-05-11T21:29:38.764Z,88.89
2019-05-11T21:32:10.948Z,89.33
2019-05-11T21:34:42.979Z,88.62
2019-05-11T21:37:15.024Z,89.37
2019-05-11T21:39:48.187Z,89.30
2019-05-11T21:42:20.309Z,89.72
2019-05-11T21:44:52.279Z,89.80
2019-05-11T21:47:24.327Z,89.72
2019-05-11T21:49:57.782Z,90.11
2019-05-11T21:52:29.853Z,90.18
2019-05-11T21:55:01.846Z,89.74
2019-05-11T21:57:33.853Z,88.48
2019-05-11T22:00:08.781Z,88.39
2019-05-11T22:02:40.985Z,89.43
2019-05-11T22:05:13.001Z,88.73
2019-05-11T22:07:44.986Z,88.50
2019-05-11T22:10:17.745Z,89.58
2019-05-11T22:12:50.012Z,87.76
2019-05-11T22:15:22.010Z,88.74
2019-05-11T22:17:54.103Z,88.94
2019-05-11T22:20:26.068Z,88.99
2019-05-11T22:22:59.827Z,89.38
2019-05-11T22:25:31.846Z,89.15
2019-05-11T22:28:03.866Z,87.84
2019-05-11T22:30:35.865Z,87.63
2019-05-11T22:33:08.782Z,87.39
2019-05-11T22:35:41.014Z,88.23
2019-05-11T22:38:13.046Z,86.65
2019-05-11T22:40:45.047Z,87.74
2019-05-11T22:43:18.182Z,88.25
2019-05-11T22:45:50.390Z,88.70
2019-05-11T22:48:22.422Z,88.96
2019-05-11T22:50:54.472Z,88.77
2019-05-11T22:53:43.385Z,89.44
2019-05-11T22:56:00.408Z,89.62
2019-05-11T22:58:32.387Z,89.62
2019-05-11T23:01:04.378Z,89.41
2019-05-11T23:03:38.300Z,88.53
2019-05-11T23:06:10.288Z,88.37
2019-05-11T23:08:42.274Z,89.01
2019-05-11T23:11:14.273Z,89.47
2019-05-11T23:13:47.837Z,89.95
2019-05-11T23:16:20.023Z,90.05
2019-05-11T23:18:51.984Z,89.21
2019-05-11T23:21:23.988Z,89.17
2019-05-11T23:23:58.199Z,89.29
2019-05-11T23:26:29.882Z,89.21
2019-05-11T23:29:01.861Z,89.36
2019-05-11T23:31:33.853Z,89.07
2019-05-11T23:34:07.954Z,89.09
2019-05-11T23:36:39.705Z,88.79
2019-05-11T23:39:11.668Z,88.91
2019-05-11T23:41:43.716Z,89.33
2019-05-11T23:44:17.813Z,89.28
2019-05-11T23:46:49.550Z,89.28
2019-05-11T23:49:21.545Z,87.28
2019-05-11T23:51:53.560Z,87.90
2019-05-11T23:54:27.700Z,88.00
2019-05-11T23:56:59.442Z,88.29
2019-05-11T23:59:31.411Z,87.79
